Terminal Aerodrome Forecast
Issued by NWS

Current Version | Previous Version | Text Only | Print | Product List | Glossary On
Versions: 1 2 3 4 5 6 7 8 9 10 11 12 13 14 15 16 17 18 19
312
FTUS41 KPHI 200522
TAFPNE
TAF
KPNE 200522Z 2006/2106 31012KT P6SM BKN060
     FM200800 31012KT P6SM SCT060
     FM201300 31014G22KT P6SM SCT060
     FM202200 33012KT P6SM SCT060
     FM210300 32006KT P6SM SCT250=

USA.gov is the U.S. government's official web portal to all federal, state and local government web resources and services.